EGXCEGDX

Guest
Details From EGXC - RAF Coningsby
To EGDX - RAF St Athan
Flight Number -
Tags generated
Created
Modified
Stats Distance 157 nm / 291 km
Max Altitude 18,600 ft / 5,669 m
Waypoints 3
Social Downloads 1
Likes 0
Share VATSIM

Download

Looking for another format? Having issues loading an existing format? Contact us
Advertisement - Login to hide

Notes

Basic altitude profile: - Ascent Rate: 2500ft/min - Ascent Speed: 250kts - Cruise Altitude: 35000ft - Cruise Speed: 420kts - Descent Rate: 1500ft/min - Descent Speed: 250kts Options: - Use NATs: yes - Use PACOTS: yes - Use low airways: yes - Use high airways: yes

Route

EGXC HON EGDX

ID Type Via Altitude Latitude Longitude Leg Dist Tot Dist Heading (true) Name
O EGXC APT - 0 ft / 0 m 53.09316˚ -0.16613˚ - 0 nm - RAF Coningsby
HON VOR - 18,600 ft / 5,669 m 52.35667˚ -1.66361˚ 70 nm 70 nm 232° / 230° HONILEY VOR-DME
O EGDX APT - 0 ft / 0 m 51.40519˚ -3.43347˚ 87 nm 157 nm 230° / 228° RAF St Athan

Altitude Profile

Advertisement - Login to hide

EGXC

Details ICAO EGXC (QCY)
Name RAF Coningsby
Region United Kingdom
Timezone Europe/London (UTC+0.0)
Stats Elevation 25 ft / 8 m (AMSL)
Location 53.093165° -0.166128°
Runways 1
Magnetic Variation 0.641° W

METAR

EGXC 140550Z 25013KT 9999 FEW008 BKN028 03/01 Q0987 BLU

Decode

TAF

TAF AMD EGXC 140236Z 1403/1421 25012KT 9999 SCT025 TEMPO 1403/1408 26015G25KT 3000 SHRASN BKN006 PROB30 TEMPO 1408/1413 SCT015

Decode

Departure Runways

ID Width Length Bearing (true) Bearing (mag) Surface Threshold Offset Overrun Length
08 200 ft / 61 m 8,962 ft / 2,732 m 71.85° 72.49° Concrete 0 ft / 0 m 0 ft / 0 m
26 200 ft / 61 m 8,962 ft / 2,732 m 251.89° 252.53° Concrete 0 ft / 0 m 0 ft / 0 m

EGDX

Details ICAO EGDX
Name RAF St Athan
Region United Kingdom
Timezone Europe/London (UTC+0.0)
Stats Elevation 163 ft / 50 m (AMSL)
Location 51.405195° -3.433466°
Runways 1
Magnetic Variation 1.613° W

METAR

EGDX 140550Z AUTO 28014KT 9999 -RA FEW030/// SCT050/// 05/03 Q0993

Decode

TAF

Not found

Destination Runways

ID Width Length Bearing (true) Bearing (mag) Surface Threshold Offset Overrun Length
08 135 ft / 41 m 5,968 ft / 1,819 m 73.01° 74.62° Asphalt 0 ft / 0 m 148 ft / 45 m
26 135 ft / 41 m 5,968 ft / 1,819 m 253.03° 254.64° Asphalt 0 ft / 0 m 174 ft / 53 m